Time;durP1;ratioP1;P1;durP2;ratioP2;P2;SDS_P1;SDS_P2;PMS_P1;PMS_P2;Temp;Humidity;BMP_temperature;BMP_pressure;BME280_temperature;BME280_humidity;BME280_pressure;Samples;Min_cycle;Max_cycle;Signal;HPM_P1;HPM_P2
2022/08/01 00:01:07;;;;;;;2.75;1.40;;;23.60;99.90;;;;;;4230342;28;20213;-78
2022/08/01 00:03:09;;;;;;;2.75;1.38;;;23.60;99.90;;;;;;4230263;28;20218;-78
2022/08/01 00:05:12;;;;;;;2.75;1.65;;;23.60;99.90;;;;;;4229861;28;20206;-78
2022/08/01 00:07:14;;;;;;;2.15;1.63;;;23.60;99.90;;;;;;4230101;28;20217;-78
2022/08/01 00:09:16;;;;;;;1.83;1.40;;;23.60;99.90;;;;;;4230052;28;20217;-78
2022/08/01 00:11:19;;;;;;;1.60;1.50;;;23.50;99.90;;;;;;4230044;28;20222;-78
2022/08/01 00:13:21;;;;;;;2.83;1.50;;;23.50;99.90;;;;;;4230050;28;20616;-78
2022/08/01 00:15:25;;;;;;;2.13;1.67;;;23.60;99.90;;;;;;4229971;28;20226;-78
2022/08/01 00:17:27;;;;;;;2.50;1.75;;;23.60;99.90;;;;;;4229644;28;20259;-78
2022/08/01 00:19:30;;;;;;;1.73;1.48;;;23.60;99.90;;;;;;4229574;28;20693;-78
2022/08/01 00:21:32;;;;;;;1.77;1.50;;;23.60;99.90;;;;;;4229621;28;20274;-78
2022/08/01 00:23:34;;;;;;;2.33;1.60;;;23.60;99.90;;;;;;4230005;28;20318;-78
2022/08/01 00:25:36;;;;;;;1.58;1.33;;;23.50;99.90;;;;;;4230162;28;20217;-78
2022/08/01 00:27:39;;;;;;;2.00;1.40;;;23.50;99.90;;;;;;4229815;28;20591;-78
2022/08/01 00:29:41;;;;;;;1.77;1.50;;;23.50;99.90;;;;;;4229800;28;20210;-78
2022/08/01 00:31:45;;;;;;;2.25;1.73;;;23.50;99.90;;;;;;4229526;28;20272;-78
2022/08/01 00:33:47;;;;;;;1.60;1.50;;;23.50;99.90;;;;;;4229500;28;20274;-78
2022/08/01 00:35:50;;;;;;;2.63;1.60;;;23.50;99.90;;;;;;4229803;28;20225;-78
2022/08/01 00:37:52;;;;;;;2.10;1.45;;;23.60;99.90;;;;;;4229623;28;20209;-78
2022/08/01 00:39:54;;;;;;;2.28;1.80;;;23.50;99.90;;;;;;4229777;28;20282;-78
2022/08/01 00:41:57;;;;;;;2.00;1.67;;;23.50;99.90;;;;;;4229441;28;20679;-78
2022/08/01 00:43:59;;;;;;;2.70;1.67;;;23.50;99.90;;;;;;4229458;28;20255;-78
2022/08/01 00:46:01;;;;;;;1.88;1.48;;;23.50;99.90;;;;;;4229594;28;20278;-78
2022/08/01 00:48:05;;;;;;;2.35;1.60;;;23.50;99.90;;;;;;4230833;28;20969;-78
2022/08/01 00:50:12;;;;;;;1.38;1.27;;;23.50;99.90;;;;;;4233052;28;20269;-78
2022/08/01 00:52:15;;;;;;;1.85;1.60;;;23.50;99.90;;;;;;4233583;28;20205;-78
2022/08/01 00:54:17;;;;;;;2.55;1.63;;;23.50;99.90;;;;;;4233564;28;20236;-78
2022/08/01 00:56:21;;;;;;;2.35;1.73;;;23.50;99.90;;;;;;4232883;28;20275;-78
2022/08/01 00:58:24;;;;;;;2.08;1.58;;;23.50;99.90;;;;;;4232926;28;20349;-78
2022/08/01 01:00:27;;;;;;;2.15;1.52;;;23.60;99.90;;;;;;4233176;28;20225;-78
2022/08/01 01:02:29;;;;;;;3.42;1.60;;;23.50;99.90;;;;;;4232622;28;20263;-78
2022/08/01 01:04:33;;;;;;;2.13;1.65;;;23.50;99.90;;;;;;4233121;28;20213;-78
2022/08/01 01:06:45;;;;;;;3.28;1.65;;;23.50;99.90;;;;;;4233628;28;20254;-78
2022/08/01 01:08:56;;;;;;;2.78;1.75;;;23.60;99.90;;;;;;4232692;28;20613;-78
2022/08/01 01:11:04;;;;;;;1.48;1.33;;;23.50;99.90;;;;;;4232903;28;20262;-78
2022/08/01 01:13:11;;;;;;;1.95;1.40;;;23.50;99.90;;;;;;4232937;28;20205;-78
2022/08/01 01:15:20;;;;;;;2.75;1.42;;;23.50;99.90;;;;;;4233349;28;20238;-78
2022/08/01 01:17:28;;;;;;;1.48;1.33;;;23.50;99.90;;;;;;4233070;28;20213;-78
2022/08/01 01:19:34;;;;;;;1.98;1.42;;;23.50;99.90;;;;;;4232916;28;20734;-78
2022/08/01 01:21:58;;;;;;;2.40;1.58;;;23.50;99.90;;;;;;4232597;28;20253;-78
2022/08/01 01:24:14;;;;;;;2.30;1.48;;;23.50;99.90;;;;;;4232774;28;20272;-78
2022/08/01 01:26:40;;;;;;;1.92;1.70;;;23.50;99.90;;;;;;4232694;28;20206;-78
2022/08/01 01:29:10;;;;;;;2.17;1.67;;;23.50;99.90;;;;;;4232696;28;20194;-78
2022/08/01 01:31:14;;;;;;;2.17;1.50;;;23.60;99.90;;;;;;4232606;28;20198;-78
2022/08/01 01:33:18;;;;;;;2.35;1.70;;;23.50;99.90;;;;;;4232446;28;20221;-78
2022/08/01 01:35:24;;;;;;;2.30;2.00;;;23.50;99.90;;;;;;4232511;28;20222;-78
2022/08/01 01:37:29;;;;;;;2.08;1.67;;;23.50;99.90;;;;;;4232225;28;20217;-78
2022/08/01 01:39:33;;;;;;;2.00;1.80;;;23.50;99.90;;;;;;4232299;28;20651;-78
2022/08/01 01:41:38;;;;;;;3.60;1.83;;;23.50;99.90;;;;;;4232461;28;20229;-78
2022/08/01 01:43:41;;;;;;;4.03;1.83;;;23.50;99.90;;;;;;4232066;28;20237;-78
2022/08/01 01:45:46;;;;;;;4.13;2.05;;;23.50;99.90;;;;;;4232243;28;20279;-78
2022/08/01 01:47:49;;;;;;;2.22;1.70;;;23.50;99.90;;;;;;4232503;28;20218;-78
2022/08/01 01:49:53;;;;;;;2.58;1.80;;;23.50;99.90;;;;;;4232208;28;20214;-78
2022/08/01 01:51:58;;;;;;;2.13;1.60;;;23.50;99.90;;;;;;4232124;28;20214;-78
2022/08/01 01:54:03;;;;;;;2.70;2.00;;;23.50;99.90;;;;;;4231980;28;20218;-77
2022/08/01 01:56:05;;;;;;;2.10;1.70;;;23.50;99.90;;;;;;4231946;28;20217;-77
2022/08/01 01:58:09;;;;;;;2.53;1.80;;;23.50;99.90;;;;;;4231915;28;20264;-77
2022/08/01 02:00:13;;;;;;;2.25;1.85;;;23.50;99.90;;;;;;4231665;28;20221;-77
2022/08/01 02:02:21;;;;;;;1.63;1.52;;;23.40;99.90;;;;;;4232171;28;20239;-77
2022/08/01 02:04:25;;;;;;;1.90;1.77;;;23.50;99.90;;;;;;4232343;28;20189;-77
2022/08/01 02:06:28;;;;;;;3.20;1.83;;;23.50;99.90;;;;;;4231840;28;20270;-77
2022/08/01 02:08:32;;;;;;;3.05;1.70;;;23.40;99.90;;;;;;4231953;28;20214;-77
2022/08/01 02:10:37;;;;;;;2.55;1.83;;;23.50;99.90;;;;;;4231560;28;20218;-77
2022/08/01 02:12:45;;;;;;;2.47;1.70;;;23.50;99.90;;;;;;4231743;28;20213;-77
2022/08/01 02:14:49;;;;;;;2.25;1.70;;;23.50;99.90;;;;;;4231804;28;20727;-77
2022/08/01 02:16:52;;;;;;;2.35;1.90;;;23.40;99.90;;;;;;4231460;28;20236;-77
2022/08/01 02:18:56;;;;;;;2.58;2.10;;;23.40;99.90;;;;;;4231498;28;20214;-77
2022/08/01 02:21:00;;;;;;;2.40;1.65;;;23.50;99.90;;;;;;4231430;28;20230;-77
2022/08/01 02:23:08;;;;;;;2.55;2.15;;;23.40;99.90;;;;;;4231308;28;20303;-77
2022/08/01 02:25:17;;;;;;;3.70;2.10;;;23.40;99.90;;;;;;4231507;28;20217;-77
2022/08/01 02:27:26;;;;;;;2.05;1.88;;;23.40;99.90;;;;;;4231419;28;20213;-77
2022/08/01 02:29:35;;;;;;;2.55;1.95;;;23.40;99.90;;;;;;4231172;28;20210;-77
2022/08/01 02:31:44;;;;;;;1.85;1.67;;;23.40;99.90;;;;;;4231682;28;20266;-77
2022/08/01 02:33:53;;;;;;;2.70;2.20;;;23.50;99.90;;;;;;4231377;28;20736;-77
2022/08/01 02:36:00;;;;;;;3.42;2.45;;;23.40;99.90;;;;;;4231536;28;20213;-77
2022/08/01 02:38:06;;;;;;;3.80;2.20;;;23.40;99.90;;;;;;4230962;28;20605;-77
2022/08/01 02:40:10;;;;;;;3.95;2.30;;;23.40;99.90;;;;;;4231389;28;20218;-77
2022/08/01 02:42:15;;;;;;;2.30;2.10;;;23.50;99.90;;;;;;4231279;28;20259;-77
2022/08/01 02:44:24;;;;;;;2.42;1.95;;;23.40;99.90;;;;;;4231108;28;20233;-80
2022/08/01 02:46:33;;;;;;;2.88;2.03;;;23.40;99.90;;;;;;4231279;28;20218;-80
2022/08/01 02:48:39;;;;;;;3.28;2.15;;;23.40;99.90;;;;;;4231107;28;20624;-80
2022/08/01 02:50:45;;;;;;;2.97;2.42;;;23.40;99.90;;;;;;4231450;28;20270;-80
2022/08/01 02:52:52;;;;;;;2.63;2.00;;;23.40;99.90;;;;;;4231292;28;20282;-80
2022/08/01 02:54:56;;;;;;;2.33;2.13;;;23.40;99.90;;;;;;4231660;28;20220;-80
2022/08/01 02:57:01;;;;;;;3.50;2.15;;;23.40;99.90;;;;;;4230798;28;20614;-80
2022/08/01 02:59:11;;;;;;;3.17;2.20;;;23.40;99.90;;;;;;4230985;28;20218;-80
2022/08/01 03:01:15;;;;;;;2.60;2.10;;;23.40;99.90;;;;;;4230804;28;20754;-80
2022/08/01 03:03:19;;;;;;;3.33;2.40;;;23.40;99.90;;;;;;4231209;28;20702;-80
2022/08/01 03:05:22;;;;;;;2.35;2.00;;;23.40;99.90;;;;;;4230936;28;20286;-80
2022/08/01 03:07:24;;;;;;;3.47;2.33;;;23.40;99.90;;;;;;4231140;28;20213;-80
2022/08/01 03:09:31;;;;;;;4.38;2.70;;;23.40;99.90;;;;;;4231371;28;20278;-80
2022/08/01 03:11:34;;;;;;;3.38;2.50;;;23.40;99.90;;;;;;4230813;28;20650;-80
2022/08/01 03:13:37;;;;;;;2.80;2.20;;;23.40;99.90;;;;;;4230952;28;20278;-80
2022/08/01 03:15:41;;;;;;;2.95;2.00;;;23.40;99.90;;;;;;4230785;28;20213;-80
2022/08/01 03:17:47;;;;;;;3.70;2.20;;;23.40;99.90;;;;;;4231016;28;20271;-80
2022/08/01 03:19:51;;;;;;;2.63;1.92;;;23.40;99.90;;;;;;4230668;28;20213;-80
2022/08/01 03:21:54;;;;;;;2.83;2.40;;;23.40;99.90;;;;;;4230867;28;20290;-80
2022/08/01 03:24:00;;;;;;;4.20;2.40;;;23.40;99.90;;;;;;4230678;28;20342;-80
2022/08/01 03:26:04;;;;;;;3.95;2.70;;;23.40;99.90;;;;;;4230964;28;20266;-80
2022/08/01 03:28:09;;;;;;;3.50;2.47;;;23.40;99.90;;;;;;4230626;28;20225;-80
2022/08/01 03:30:15;;;;;;;3.38;2.58;;;23.40;99.90;;;;;;4230634;28;20214;-80
2022/08/01 03:32:18;;;;;;;4.32;2.72;;;23.40;99.90;;;;;;4230541;28;20218;-80
2022/08/01 03:34:21;;;;;;;3.78;2.60;;;23.40;99.90;;;;;;4230477;28;20218;-80
2022/08/01 03:36:29;;;;;;;3.70;2.50;;;23.40;99.90;;;;;;4230646;28;20217;-80
2022/08/01 03:38:34;;;;;;;2.80;2.53;;;23.40;99.90;;;;;;4230930;28;20973;-80
2022/08/01 03:40:39;;;;;;;3.30;2.47;;;23.40;99.90;;;;;;4230778;28;20214;-80
2022/08/01 03:42:48;;;;;;;3.58;2.45;;;23.40;99.90;;;;;;4230439;28;20287;-80
2022/08/01 03:44:55;;;;;;;3.45;2.42;;;23.40;99.90;;;;;;4230218;28;20286;-80
2022/08/01 03:47:01;;;;;;;2.80;2.50;;;23.40;99.90;;;;;;4230253;28;20217;-80
2022/08/01 03:49:10;;;;;;;3.47;2.45;;;23.40;99.90;;;;;;4230569;28;20213;-80
2022/08/01 03:51:14;;;;;;;3.17;2.58;;;23.40;99.90;;;;;;4230212;28;20661;-80
2022/08/01 03:53:21;;;;;;;4.50;2.50;;;23.40;99.90;;;;;;4230293;28;20222;-80
2022/08/01 03:55:26;;;;;;;4.07;2.95;;;23.40;99.90;;;;;;4230118;28;20217;-80
2022/08/01 03:57:30;;;;;;;3.45;2.35;;;23.40;99.90;;;;;;4229886;28;20229;-80
2022/08/01 03:59:36;;;;;;;4.20;2.70;;;23.40;99.90;;;;;;4230035;28;20213;-80
2022/08/01 04:01:39;;;;;;;3.55;2.60;;;23.30;99.90;;;;;;4230318;28;20290;-80
2022/08/01 04:03:42;;;;;;;4.25;2.65;;;23.40;99.90;;;;;;4230424;28;20222;-80
2022/08/01 04:05:45;;;;;;;2.92;2.63;;;23.40;99.90;;;;;;4230135;28;20635;-80
2022/08/01 04:07:54;;;;;;;3.70;2.80;;;23.40;99.90;;;;;;4230324;28;20286;-80
2022/08/01 04:09:57;;;;;;;4.40;2.92;;;23.40;99.90;;;;;;4230221;28;20239;-80
2022/08/01 04:12:00;;;;;;;4.05;2.80;;;23.40;99.90;;;;;;4230157;28;20210;-80
2022/08/01 04:14:03;;;;;;;4.00;2.97;;;23.40;99.90;;;;;;4229712;28;20262;-80
2022/08/01 04:16:08;;;;;;;4.07;2.65;;;23.30;99.90;;;;;;4229970;28;20270;-80
2022/08/01 04:18:10;;;;;;;3.10;2.50;;;23.30;99.90;;;;;;4230034;28;20206;-80
2022/08/01 04:20:13;;;;;;;6.63;2.85;;;23.30;99.90;;;;;;4230011;28;20210;-80
2022/08/01 04:22:16;;;;;;;3.85;2.53;;;23.40;99.90;;;;;;4230125;28;20241;-80
2022/08/01 04:24:20;;;;;;;3.63;2.67;;;23.40;99.90;;;;;;4230095;28;20217;-80
2022/08/01 04:26:25;;;;;;;3.78;2.50;;;23.40;99.90;;;;;;4229991;28;20218;-80
2022/08/01 04:28:28;;;;;;;4.93;2.85;;;23.40;99.90;;;;;;4230073;28;20217;-80
2022/08/01 04:30:35;;;;;;;4.97;2.92;;;23.40;99.90;;;;;;4229793;28;20214;-80
2022/08/01 04:32:41;;;;;;;3.47;2.53;;;23.30;99.90;;;;;;4230045;28;20262;-80
2022/08/01 04:34:46;;;;;;;4.32;2.80;;;23.30;99.90;;;;;;4229823;28;20266;-80
2022/08/01 04:36:51;;;;;;;2.83;2.60;;;23.40;99.90;;;;;;4229781;28;20221;-80
2022/08/01 04:38:59;;;;;;;3.67;2.75;;;23.30;99.90;;;;;;4229707;28;20213;-80
2022/08/01 04:41:02;;;;;;;4.50;3.13;;;23.30;99.90;;;;;;4229491;28;20213;-80
2022/08/01 04:43:05;;;;;;;4.68;3.40;;;23.30;99.90;;;;;;4229378;28;20286;-80
2022/08/01 04:45:09;;;;;;;4.60;2.70;;;23.30;99.90;;;;;;4229552;28;20266;-80
2022/08/01 04:47:13;;;;;;;3.20;2.88;;;23.30;99.90;;;;;;4229669;28;20281;-80
2022/08/01 04:49:17;;;;;;;3.17;2.85;;;23.30;99.90;;;;;;4229795;28;20217;-80
2022/08/01 04:51:21;;;;;;;3.83;3.20;;;23.30;99.90;;;;;;4230061;28;20214;-80
2022/08/01 04:53:25;;;;;;;6.45;3.42;;;23.30;99.90;;;;;;4230080;28;20738;-80
2022/08/01 04:55:28;;;;;;;4.53;2.88;;;23.30;99.90;;;;;;4230103;28;20630;-80
2022/08/01 04:57:31;;;;;;;4.10;2.97;;;23.30;99.90;;;;;;4229624;28;20213;-80
2022/08/01 04:59:42;;;;;;;3.88;3.17;;;23.30;99.90;;;;;;4229743;28;20198;-80
2022/08/01 05:01:50;;;;;;;4.00;3.10;;;23.30;99.90;;;;;;4229954;28;20197;-80
2022/08/01 05:03:52;;;;;;;3.40;2.92;;;23.30;99.90;;;;;;4229972;28;20593;-80
2022/08/01 05:05:56;;;;;;;4.07;3.15;;;23.30;99.90;;;;;;4229812;28;20213;-80
2022/08/01 05:07:58;;;;;;;4.15;3.25;;;23.30;99.90;;;;;;4229532;28;20221;-80
2022/08/01 05:10:01;;;;;;;4.60;3.33;;;23.30;99.90;;;;;;4229585;28;20239;-80
2022/08/01 05:12:05;;;;;;;4.50;3.15;;;23.30;99.90;;;;;;4229403;28;20210;-80
2022/08/01 05:14:07;;;;;;;3.67;2.67;;;23.30;99.90;;;;;;4230004;28;20271;-80
2022/08/01 05:16:09;;;;;;;3.38;2.85;;;23.30;99.90;;;;;;4229735;28;20222;-80
2022/08/01 05:18:12;;;;;;;5.18;3.20;;;23.40;99.90;;;;;;4229780;28;20271;-80
2022/08/01 05:20:14;;;;;;;3.40;3.10;;;23.30;99.90;;;;;;4229276;28;20270;-80
2022/08/01 05:22:18;;;;;;;3.53;2.85;;;23.30;99.90;;;;;;4229149;28;20287;-80
2022/08/01 05:24:20;;;;;;;5.15;2.90;;;23.30;99.90;;;;;;4229421;28;20262;-80
2022/08/01 05:26:23;;;;;;;4.85;3.03;;;23.30;99.90;;;;;;4229604;28;20202;-80
2022/08/01 05:28:25;;;;;;;4.25;3.30;;;23.30;99.90;;;;;;4229445;28;20700;-80
2022/08/01 05:30:27;;;;;;;3.63;2.95;;;23.30;99.90;;;;;;4229397;28;20263;-80
2022/08/01 05:32:31;;;;;;;3.60;2.95;;;23.30;99.90;;;;;;4229443;28;20620;-80
2022/08/01 05:34:34;;;;;;;3.53;2.90;;;23.30;99.90;;;;;;4230803;28;20213;-80
2022/08/01 05:36:37;;;;;;;3.42;3.05;;;23.30;99.90;;;;;;4232619;28;20213;-80
2022/08/01 05:38:41;;;;;;;3.70;3.10;;;23.30;99.90;;;;;;4232172;28;20249;-80
2022/08/01 05:40:43;;;;;;;4.45;2.60;;;23.30;99.90;;;;;;4232239;28;20266;-80
2022/08/01 05:42:45;;;;;;;3.30;2.63;;;23.30;99.90;;;;;;4232002;28;20237;-80
2022/08/01 05:44:49;;;;;;;3.75;2.80;;;23.30;99.90;;;;;;4232356;28;20271;-80
2022/08/01 05:46:52;;;;;;;4.72;2.70;;;23.30;99.90;;;;;;4232367;28;20681;-80
2022/08/01 05:48:54;;;;;;;3.25;2.92;;;23.30;99.90;;;;;;4232172;28;20213;-80
2022/08/01 05:50:56;;;;;;;2.63;2.40;;;23.30;99.90;;;;;;4232444;28;20279;-80
2022/08/01 05:52:58;;;;;;;2.95;2.67;;;23.30;99.90;;;;;;4232095;28;20263;-80
2022/08/01 05:55:02;;;;;;;3.63;2.63;;;23.30;99.90;;;;;;4232363;28;20217;-80
2022/08/01 05:57:05;;;;;;;3.30;2.65;;;23.30;99.90;;;;;;4232119;28;20222;-80
2022/08/01 05:59:07;;;;;;;2.80;2.55;;;23.30;99.90;;;;;;4232454;28;20213;-80
2022/08/01 06:01:10;;;;;;;4.70;2.80;;;23.40;99.90;;;;;;4232129;28;20221;-80
2022/08/01 06:03:12;;;;;;;3.45;2.80;;;23.30;99.90;;;;;;4232269;28;20233;-80
2022/08/01 06:05:15;;;;;;;4.28;2.92;;;23.30;99.90;;;;;;4232086;28;20209;-80
2022/08/01 06:07:17;;;;;;;3.72;2.80;;;23.30;99.90;;;;;;4231961;28;20270;-80
2022/08/01 06:09:19;;;;;;;4.60;2.67;;;23.30;99.90;;;;;;4232054;28;20263;-80
2022/08/01 06:11:23;;;;;;;2.85;2.40;;;23.30;99.90;;;;;;4231675;28;20213;-80
2022/08/01 06:13:25;;;;;;;3.08;2.50;;;23.30;99.90;;;;;;4232004;28;20251;-80
2022/08/01 06:15:27;;;;;;;2.92;2.63;;;23.40;99.90;;;;;;4231717;28;20240;-80
2022/08/01 06:17:30;;;;;;;3.67;2.90;;;23.30;99.90;;;;;;4231717;28;20218;-80
2022/08/01 06:19:32;;;;;;;2.92;2.60;;;23.30;99.90;;;;;;4232059;28;20218;-80
2022/08/01 06:21:34;;;;;;;3.20;2.50;;;23.30;99.90;;;;;;4231990;28;20669;-80
2022/08/01 06:23:37;;;;;;;3.40;2.65;;;23.40;99.90;;;;;;4231541;28;20238;-80
2022/08/01 06:25:39;;;;;;;3.92;2.67;;;23.30;99.90;;;;;;4231623;28;20267;-80
2022/08/01 06:27:43;;;;;;;3.40;2.60;;;23.40;99.90;;;;;;4231803;28;20271;-80
2022/08/01 06:29:45;;;;;;;3.75;2.70;;;23.30;99.90;;;;;;4231415;28;20615;-80
2022/08/01 06:31:47;;;;;;;2.97;2.42;;;23.40;99.90;;;;;;4231635;28;20221;-80
2022/08/01 06:33:49;;;;;;;3.08;2.50;;;23.40;99.90;;;;;;4231828;28;20262;-80
2022/08/01 06:35:52;;;;;;;3.95;2.65;;;23.40;99.90;;;;;;4231505;28;20213;-80
2022/08/01 06:37:54;;;;;;;3.55;2.55;;;23.40;99.90;;;;;;4231514;28;20236;-80
2022/08/01 06:39:56;;;;;;;2.60;2.40;;;23.40;99.90;;;;;;4231422;28;20214;-80
2022/08/01 06:41:58;;;;;;;3.25;2.55;;;23.40;99.90;;;;;;4231057;28;20585;-81
2022/08/01 06:44:04;;;;;;;3.47;2.50;;;23.40;99.90;;;;;;4231624;28;20233;-80
2022/08/01 06:46:06;;;;;;;2.50;2.30;;;23.40;99.90;;;;;;4230286;28;20263;-80
2022/08/01 06:48:08;;;;;;;3.20;2.40;;;23.40;99.90;;;;;;4231366;28;20222;-80
2022/08/01 06:50:11;;;;;;;2.97;2.40;;;23.40;99.90;;;;;;4231206;28;20662;-80
2022/08/01 06:52:13;;;;;;;2.95;2.45;;;23.40;99.90;;;;;;4231119;28;20218;-80
2022/08/01 06:54:16;;;;;;;3.35;2.60;;;23.50;99.90;;;;;;4231614;28;20263;-80
2022/08/01 06:56:18;;;;;;;3.33;2.60;;;23.40;99.90;;;;;;4231022;28;20676;-80
2022/08/01 06:58:21;;;;;;;2.47;2.28;;;23.50;99.90;;;;;;4231594;28;20213;-80
2022/08/01 07:00:26;;;;;;;3.25;2.70;;;23.50;99.90;;;;;;4231265;28;20318;-80
2022/08/01 07:02:28;;;;;;;2.63;2.33;;;23.50;99.90;;;;;;4231103;28;20218;-80
2022/08/01 07:04:31;;;;;;;3.35;2.42;;;23.50;99.90;;;;;;4231043;28;20241;-80
2022/08/01 07:06:33;;;;;;;2.90;2.60;;;23.50;99.90;;;;;;4231215;28;20270;-80
2022/08/01 07:08:35;;;;;;;3.35;2.63;;;23.50;99.90;;;;;;4231001;28;20214;-80
2022/08/01 07:10:38;;;;;;;2.22;2.03;;;23.50;99.90;;;;;;4231219;28;20270;-80
2022/08/01 07:12:40;;;;;;;2.78;2.15;;;23.50;99.90;;;;;;4231128;28;20266;-80
2022/08/01 07:14:43;;;;;;;2.72;2.20;;;23.50;99.90;;;;;;4231019;28;20649;-80
2022/08/01 07:16:46;;;;;;;3.58;2.50;;;23.50;99.90;;;;;;4230722;28;20263;-80
2022/08/01 07:18:49;;;;;;;2.72;2.50;;;23.50;99.90;;;;;;4230614;28;20617;-80
2022/08/01 07:20:51;;;;;;;4.18;2.50;;;23.50;99.90;;;;;;4231079;28;20262;-80
2022/08/01 07:22:53;;;;;;;2.40;2.20;;;23.50;99.90;;;;;;4230703;28;20226;-80
2022/08/01 07:24:56;;;;;;;3.60;2.47;;;23.50;99.90;;;;;;4230878;28;20294;-80
2022/08/01 07:26:58;;;;;;;2.58;2.20;;;23.50;99.90;;;;;;4231090;28;20214;-80
2022/08/01 07:29:00;;;;;;;2.42;2.22;;;23.60;99.90;;;;;;4231015;28;20258;-81
2022/08/01 07:31:03;;;;;;;2.92;2.38;;;23.50;99.90;;;;;;4230633;28;20217;-81
2022/08/01 07:33:06;;;;;;;2.45;2.25;;;23.50;99.90;;;;;;4230542;28;20275;-80
2022/08/01 07:35:09;;;;;;;2.83;2.25;;;23.50;99.90;;;;;;4230290;28;20622;-80
2022/08/01 07:37:12;;;;;;;3.58;2.30;;;23.50;99.90;;;;;;4230232;28;20213;-80
2022/08/01 07:39:16;;;;;;;3.67;2.63;;;23.60;99.90;;;;;;4232054;28;20566;-80
2022/08/01 07:41:19;;;;;;;2.88;2.25;;;23.60;99.90;;;;;;4231769;28;20217;-81
2022/08/01 07:43:21;;;;;;;5.28;2.65;;;23.60;99.90;;;;;;4231412;28;20233;-81
2022/08/01 07:45:23;;;;;;;3.15;2.38;;;23.50;99.90;;;;;;4231831;28;20267;-82
2022/08/01 07:47:26;;;;;;;2.65;2.40;;;23.50;99.90;;;;;;4231648;28;20238;-82
2022/08/01 07:49:30;;;;;;;2.60;2.15;;;23.50;99.90;;;;;;4231463;28;20218;-82
2022/08/01 07:51:32;;;;;;;2.63;2.15;;;23.50;99.90;;;;;;4231509;28;20213;-81
2022/08/01 07:53:34;;;;;;;5.50;2.60;;;23.50;99.90;;;;;;4231371;28;20267;-81
2022/08/01 07:55:37;;;;;;;5.25;2.55;;;23.50;99.90;;;;;;4231438;28;20262;-82
2022/08/01 07:57:39;;;;;;;6.72;2.90;;;23.50;99.90;;;;;;4231525;28;20209;-82
2022/08/01 07:59:41;;;;;;;5.13;2.70;;;23.50;99.90;;;;;;4231540;28;20210;-82
2022/08/01 08:01:44;;;;;;;3.55;2.53;;;23.50;99.90;;;;;;4231433;28;20274;-82
2022/08/01 08:03:46;;;;;;;2.70;2.38;;;23.50;99.90;;;;;;4231689;28;20758;-82
2022/08/01 08:05:50;;;;;;;2.85;2.30;;;23.50;99.90;;;;;;4231536;28;20225;-82
2022/08/01 08:07:52;;;;;;;2.60;2.40;;;23.50;99.90;;;;;;4231427;28;20259;-82
2022/08/01 08:09:54;;;;;;;2.20;1.90;;;23.50;99.90;;;;;;4231639;28;20665;-82
2022/08/01 08:11:56;;;;;;;2.47;2.08;;;23.50;99.90;;;;;;4231583;28;20654;-82
2022/08/01 08:13:59;;;;;;;3.90;2.08;;;23.50;99.90;;;;;;4231624;28;20213;-82
2022/08/01 08:16:01;;;;;;;2.95;2.30;;;23.50;99.90;;;;;;4231488;28;20222;-83
2022/08/01 08:18:04;;;;;;;3.28;2.38;;;23.50;99.90;;;;;;4231528;28;20593;-82
2022/08/01 08:20:08;;;;;;;4.05;2.28;;;23.50;99.90;;;;;;4230786;28;20214;-82
2022/08/01 08:22:12;;;;;;;2.75;2.20;;;23.50;99.90;;;;;;4230242;28;20620;-82
2022/08/01 08:24:19;;;;;;;3.20;2.45;;;23.60;99.90;;;;;;4231061;28;20238;-82
2022/08/01 08:26:23;;;;;;;3.00;2.20;;;23.60;99.90;;;;;;4231234;28;20239;-82
2022/08/01 08:28:25;;;;;;;2.97;2.17;;;23.60;99.90;;;;;;4231037;28;20217;-82
2022/08/01 08:30:27;;;;;;;2.83;2.17;;;23.60;99.90;;;;;;4231397;28;20289;-82
2022/08/01 08:32:30;;;;;;;4.07;2.33;;;23.50;99.90;;;;;;4231409;28;20609;-83
2022/08/01 08:34:32;;;;;;;3.00;2.15;;;23.60;99.90;;;;;;4231110;28;20214;-82
2022/08/01 08:36:34;;;;;;;3.72;2.38;;;23.60;99.90;;;;;;4230942;28;20286;-82
2022/08/01 08:38:38;;;;;;;4.03;2.03;;;23.60;99.90;;;;;;4230018;28;20558;-82
2022/08/01 08:40:41;;;;;;;2.40;1.80;;;23.60;99.90;;;;;;4229610;28;20270;-82
2022/08/01 08:42:43;;;;;;;2.97;2.15;;;23.60;99.90;;;;;;4230067;28;20738;-82
2022/08/01 08:44:46;;;;;;;2.78;2.20;;;23.60;99.90;;;;;;4229871;28;20237;-83
2022/08/01 08:46:50;;;;;;;3.60;2.22;;;23.60;99.90;;;;;;4228418;28;20259;-82
2022/08/01 08:48:53;;;;;;;4.78;2.40;;;23.60;99.90;;;;;;4227831;28;20270;-82
2022/08/01 08:50:58;;;;;;;2.90;2.08;;;23.60;99.90;;;;;;4228164;28;20217;-82
2022/08/01 08:53:02;;;;;;;2.55;2.17;;;23.70;99.90;;;;;;4228246;28;20739;-82
2022/08/01 08:55:08;;;;;;;4.07;2.30;;;23.60;99.90;;;;;;4228267;28;20270;-82
2022/08/01 08:57:14;;;;;;;3.17;2.13;;;23.70;99.90;;;;;;4228329;28;20266;-82
2022/08/01 08:59:16;;;;;;;3.10;2.40;;;23.70;99.90;;;;;;4228260;28;20758;-83
2022/08/01 09:01:19;;;;;;;4.00;2.40;;;23.70;99.90;;;;;;4228621;28;20222;-82
2022/08/01 09:03:21;;;;;;;4.05;2.30;;;23.60;99.90;;;;;;4229897;28;20602;-82
2022/08/01 09:05:26;;;;;;;2.15;1.88;;;23.60;99.90;;;;;;4229857;28;20279;-82
2022/08/01 09:07:28;;;;;;;3.08;2.22;;;23.70;99.90;;;;;;4229827;28;21046;-82
2022/08/01 09:09:31;;;;;;;2.25;2.05;;;23.70;99.90;;;;;;4231468;28;20613;-82
2022/08/01 09:11:35;;;;;;;3.30;2.05;;;23.70;99.90;;;;;;4233078;28;20194;-82
2022/08/01 09:13:37;;;;;;;3.45;2.20;;;23.70;99.90;;;;;;4232828;28;20213;-83
2022/08/01 09:15:42;;;;;;;2.88;2.20;;;23.70;99.90;;;;;;4233120;28;20205;-82
2022/08/01 09:17:44;;;;;;;2.35;2.10;;;23.70;99.90;;;;;;4232673;28;20666;-82
2022/08/01 09:19:51;;;;;;;3.38;2.33;;;23.70;99.90;;;;;;4233327;28;20558;-83
2022/08/01 09:21:58;;;;;;;3.30;2.10;;;23.70;99.90;;;;;;4234313;28;20213;-82
2022/08/01 09:24:02;;;;;;;2.50;2.10;;;23.70;99.90;;;;;;4234160;28;20942;-82
2022/08/01 09:26:05;;;;;;;1.77;1.67;;;23.70;99.90;;;;;;4234108;28;20658;-82
2022/08/01 09:28:09;;;;;;;2.45;2.00;;;23.70;99.90;;;;;;4233642;28;20256;-82
2022/08/01 09:30:13;;;;;;;2.33;1.92;;;23.70;99.90;;;;;;4234142;28;20205;-83
2022/08/01 09:32:16;;;;;;;2.28;2.00;;;23.70;99.90;;;;;;4233926;28;20217;-83
2022/08/01 09:34:25;;;;;;;2.30;2.10;;;23.70;99.90;;;;;;4234163;28;20221;-83
2022/08/01 09:36:48;;;;;;;2.75;2.00;;;23.70;99.90;;;;;;4233753;28;20262;-82
2022/08/01 09:38:51;;;;;;;4.15;2.13;;;23.70;99.90;;;;;;4232474;28;20274;-83
2022/08/01 09:40:55;;;;;;;2.45;2.05;;;23.70;99.90;;;;;;4231238;28;20213;-83
2022/08/01 09:43:13;;;;;;;2.78;2.17;;;23.60;99.90;;;;;;4230915;28;20206;-82
2022/08/01 09:45:33;;;;;;;2.65;2.05;;;23.70;99.90;;;;;;4230856;28;20287;-83
2022/08/01 09:47:38;;;;;;;2.05;1.85;;;23.70;99.90;;;;;;4230779;28;20267;-82
2022/08/01 09:49:42;;;;;;;2.40;2.20;;;23.70;99.90;;;;;;4230888;28;20271;-83
2022/08/01 09:51:45;;;;;;;2.53;1.95;;;23.70;99.90;;;;;;4230804;28;20218;-83
2022/08/01 09:53:49;;;;;;;2.28;2.00;;;23.80;99.90;;;;;;4230713;28;20210;-83
2022/08/01 09:55:53;;;;;;;2.60;2.05;;;23.70;99.90;;;;;;4231668;28;20214;-82
2022/08/01 09:57:58;;;;;;;2.22;1.92;;;23.70;99.90;;;;;;4232031;28;20619;-83
2022/08/01 10:00:03;;;;;;;2.90;1.92;;;23.80;99.90;;;;;;4232073;28;20605;-83
2022/08/01 10:02:06;;;;;;;3.05;2.22;;;23.80;99.90;;;;;;4232265;28;20270;-82
2022/08/01 10:04:10;;;;;;;2.00;1.80;;;23.80;99.90;;;;;;4231858;28;20214;-83
2022/08/01 10:06:21;;;;;;;3.08;1.90;;;23.80;99.90;;;;;;4231639;28;20282;-82
2022/08/01 10:08:25;;;;;;;2.70;2.10;;;23.80;99.90;;;;;;4232158;28;20263;-82
2022/08/01 10:10:28;;;;;;;3.25;2.20;;;23.80;99.90;;;;;;4231763;28;20210;-83
2022/08/01 10:12:33;;;;;;;2.40;2.03;;;23.80;99.90;;;;;;4231367;28;20217;-82
2022/08/01 10:14:38;;;;;;;2.63;2.03;;;23.80;99.90;;;;;;4232084;28;20612;-83
2022/08/01 10:16:42;;;;;;;2.58;1.98;;;23.80;99.90;;;;;;4231821;28;20213;-83
2022/08/01 10:18:46;;;;;;;2.45;1.83;;;23.80;99.90;;;;;;4231895;28;20221;-82
2022/08/01 10:20:49;;;;;;;2.50;1.80;;;23.80;99.90;;;;;;4231153;28;20662;-83
2022/08/01 10:22:54;;;;;;;2.30;1.92;;;23.80;99.90;;;;;;4231727;28;20213;-82
2022/08/01 10:24:58;;;;;;;3.08;2.10;;;23.80;99.90;;;;;;4231040;28;20753;-82
2022/08/01 10:27:04;;;;;;;2.35;1.88;;;23.90;99.90;;;;;;4231909;28;20652;-83
2022/08/01 10:29:07;;;;;;;2.22;1.80;;;23.90;99.90;;;;;;4232142;28;20338;-82
2022/08/01 10:31:10;;;;;;;3.97;2.13;;;23.90;99.90;;;;;;4231618;28;20630;-82
2022/08/01 10:33:14;;;;;;;2.97;1.58;;;23.90;99.90;;;;;;4231708;28;20322;-83
2022/08/01 10:35:17;;;;;;;1.70;1.60;;;23.90;99.90;;;;;;4231280;28;20626;-82
2022/08/01 10:37:20;;;;;;;3.03;2.00;;;23.90;99.90;;;;;;4231567;28;20214;-82
2022/08/01 10:39:23;;;;;;;2.03;1.83;;;23.90;99.90;;;;;;4231352;28;20217;-82
2022/08/01 10:41:26;;;;;;;1.90;1.70;;;23.90;99.90;;;;;;4231668;28;20259;-83
2022/08/01 10:43:29;;;;;;;2.67;2.03;;;23.80;99.90;;;;;;4232517;28;20266;-82
2022/08/01 10:45:33;;;;;;;2.15;1.60;;;23.90;99.90;;;;;;4232550;28;20236;-82
2022/08/01 10:47:40;;;;;;;2.55;1.95;;;23.90;99.90;;;;;;4232818;28;20646;-82